sensor_id;sensor_type;location;lat;lon;timestamp;pressure;altitude;pressure_sealevel;temperature;humidity
32733;BME280;11867;51.198;11.966;2023-12-20T00:03:19;100157.28;;;5.97;100.00
32733;BME280;11867;51.198;11.966;2023-12-20T00:08:42;100153.16;;;5.90;100.00
32733;BME280;11867;51.198;11.966;2023-12-20T00:14:05;100146.28;;;5.82;100.00
32733;BME280;11867;51.198;11.966;2023-12-20T00:19:30;100137.72;;;6.44;100.00
32733;BME280;11867;51.198;11.966;2023-12-20T00:24:53;100140.34;;;6.07;100.00
32733;BME280;11867;51.198;11.966;2023-12-20T00:30:16;100121.78;;;5.66;100.00
32733;BME280;11867;51.198;11.966;2023-12-20T00:35:40;100123.75;;;5.98;100.00
32733;BME280;11867;51.198;11.966;2023-12-20T00:41:03;100124.84;;;5.75;100.00
32733;BME280;11867;51.198;11.966;2023-12-20T00:46:26;100117.63;;;5.81;100.00
32733;BME280;11867;51.198;11.966;2023-12-20T00:51:50;100119.78;;;5.84;100.00
32733;BME280;11867;51.198;11.966;2023-12-20T00:57:14;100124.06;;;6.29;100.00
32733;BME280;11867;51.198;11.966;2023-12-20T01:02:37;100114.59;;;6.32;100.00
32733;BME280;11867;51.198;11.966;2023-12-20T01:08:01;100128.13;;;5.77;100.00
32733;BME280;11867;51.198;11.966;2023-12-20T01:13:25;100129.75;;;6.00;100.00
32733;BME280;11867;51.198;11.966;2023-12-20T01:18:48;100113.44;;;6.22;100.00
32733;BME280;11867;51.198;11.966;2023-12-20T01:24:12;100116.88;;;5.91;100.00
32733;BME280;11867;51.198;11.966;2023-12-20T01:29:35;100102.16;;;6.03;100.00
32733;BME280;11867;51.198;11.966;2023-12-20T01:34:58;100089.53;;;6.14;100.00
32733;BME280;11867;51.198;11.966;2023-12-20T01:40:25;100081.63;;;6.07;100.00
32733;BME280;11867;51.198;11.966;2023-12-20T01:45:48;100081.22;;;6.26;100.00
32733;BME280;11867;51.198;11.966;2023-12-20T01:51:12;100079.63;;;5.71;100.00
32733;BME280;11867;51.198;11.966;2023-12-20T01:56:36;100075.63;;;5.78;100.00
32733;BME280;11867;51.198;11.966;2023-12-20T02:01:59;100080.91;;;5.63;100.00
32733;BME280;11867;51.198;11.966;2023-12-20T02:07:22;100070.63;;;5.65;100.00
32733;BME280;11867;51.198;11.966;2023-12-20T02:12:47;100065.22;;;5.38;100.00
32733;BME280;11867;51.198;11.966;2023-12-20T02:18:10;100054.06;;;5.34;100.00
32733;BME280;11867;51.198;11.966;2023-12-20T02:23:38;100054.88;;;5.57;100.00
32733;BME280;11867;51.198;11.966;2023-12-20T02:29:01;100053.88;;;5.68;100.00
32733;BME280;11867;51.198;11.966;2023-12-20T02:34:24;100052.47;;;5.88;100.00
32733;BME280;11867;51.198;11.966;2023-12-20T02:39:49;100056.22;;;5.86;100.00
32733;BME280;11867;51.198;11.966;2023-12-20T02:45:12;100052.19;;;5.62;100.00
32733;BME280;11867;51.198;11.966;2023-12-20T02:50:35;100039.03;;;5.43;100.00
32733;BME280;11867;51.198;11.966;2023-12-20T02:55:59;100036.50;;;5.59;100.00
32733;BME280;11867;51.198;11.966;2023-12-20T03:01:22;100026.34;;;5.71;100.00
32733;BME280;11867;51.198;11.966;2023-12-20T03:06:45;100037.09;;;5.66;100.00
32733;BME280;11867;51.198;11.966;2023-12-20T03:12:09;100038.75;;;5.40;100.00
32733;BME280;11867;51.198;11.966;2023-12-20T03:17:32;100034.47;;;5.44;100.00
32733;BME280;11867;51.198;11.966;2023-12-20T03:22:55;100020.50;;;5.30;100.00
32733;BME280;11867;51.198;11.966;2023-12-20T03:28:19;100031.13;;;5.37;100.00
32733;BME280;11867;51.198;11.966;2023-12-20T03:33:42;100031.53;;;5.23;100.00
32733;BME280;11867;51.198;11.966;2023-12-20T03:39:05;100020.50;;;5.30;100.00
32733;BME280;11867;51.198;11.966;2023-12-20T03:44:29;100023.13;;;5.74;100.00
32733;BME280;11867;51.198;11.966;2023-12-20T03:49:52;100044.50;;;5.49;100.00
32733;BME280;11867;51.198;11.966;2023-12-20T03:55:16;100042.16;;;5.57;100.00
32733;BME280;11867;51.198;11.966;2023-12-20T04:00:40;100046.72;;;5.30;100.00
32733;BME280;11867;51.198;11.966;2023-12-20T04:06:03;100049.34;;;5.46;100.00
32733;BME280;11867;51.198;11.966;2023-12-20T04:11:26;100054.00;;;5.78;100.00
32733;BME280;11867;51.198;11.966;2023-12-20T04:16:51;100063.78;;;5.57;100.00
32733;BME280;11867;51.198;11.966;2023-12-20T04:22:14;100051.00;;;5.75;100.00
32733;BME280;11867;51.198;11.966;2023-12-20T04:27:37;100054.09;;;5.89;100.00
32733;BME280;11867;51.198;11.966;2023-12-20T04:33:01;100049.69;;;5.82;100.00
32733;BME280;11867;51.198;11.966;2023-12-20T04:38:24;100034.03;;;5.84;100.00
32733;BME280;11867;51.198;11.966;2023-12-20T04:43:47;100057.66;;;5.94;100.00
32733;BME280;11867;51.198;11.966;2023-12-20T04:49:11;100067.03;;;5.81;100.00
32733;BME280;11867;51.198;11.966;2023-12-20T04:54:34;100066.81;;;6.15;100.00
32733;BME280;11867;51.198;11.966;2023-12-20T04:59:57;100083.72;;;5.73;100.00
32733;BME280;11867;51.198;11.966;2023-12-20T05:05:21;100079.09;;;5.74;100.00
32733;BME280;11867;51.198;11.966;2023-12-20T05:10:44;100067.78;;;5.77;100.00
32733;BME280;11867;51.198;11.966;2023-12-20T05:16:07;100063.03;;;6.16;100.00
32733;BME280;11867;51.198;11.966;2023-12-20T05:21:32;100073.59;;;5.91;100.00
32733;BME280;11867;51.198;11.966;2023-12-20T05:26:55;100072.25;;;5.93;100.00
32733;BME280;11867;51.198;11.966;2023-12-20T05:32:18;100074.63;;;5.84;100.00
32733;BME280;11867;51.198;11.966;2023-12-20T05:37:42;100075.03;;;5.71;100.00
32733;BME280;11867;51.198;11.966;2023-12-20T05:43:06;100089.25;;;5.89;100.00
32733;BME280;11867;51.198;11.966;2023-12-20T05:48:29;100103.16;;;5.97;100.00
32733;BME280;11867;51.198;11.966;2023-12-20T05:53:53;100114.63;;;5.82;100.00
32733;BME280;11867;51.198;11.966;2023-12-20T05:59:16;100106.06;;;6.18;100.00
32733;BME280;11867;51.198;11.966;2023-12-20T06:04:42;100101.09;;;5.82;100.00
32733;BME280;11867;51.198;11.966;2023-12-20T06:10:07;100111.69;;;5.62;100.00
32733;BME280;11867;51.198;11.966;2023-12-20T06:15:30;100118.31;;;5.71;100.00
32733;BME280;11867;51.198;11.966;2023-12-20T06:20:53;100114.19;;;5.91;100.00
32733;BME280;11867;51.198;11.966;2023-12-20T06:26:17;100126.47;;;5.76;100.00
32733;BME280;11867;51.198;11.966;2023-12-20T06:31:40;100130.16;;;5.65;100.00
32733;BME280;11867;51.198;11.966;2023-12-20T06:37:03;100126.63;;;5.42;100.00
32733;BME280;11867;51.198;11.966;2023-12-20T06:42:28;100121.09;;;5.54;100.00
32733;BME280;11867;51.198;11.966;2023-12-20T06:47:55;100121.47;;;5.63;100.00
32733;BME280;11867;51.198;11.966;2023-12-20T06:53:18;100118.06;;;5.51;100.00
32733;BME280;11867;51.198;11.966;2023-12-20T06:58:42;100124.28;;;5.51;100.00
32733;BME280;11867;51.198;11.966;2023-12-20T07:04:05;100117.69;;;5.64;100.00
32733;BME280;11867;51.198;11.966;2023-12-20T07:09:28;100120.03;;;5.55;100.00
32733;BME280;11867;51.198;11.966;2023-12-20T07:14:52;100113.47;;;5.51;100.00
32733;BME280;11867;51.198;11.966;2023-12-20T07:20:16;100113.84;;;5.60;100.00
32733;BME280;11867;51.198;11.966;2023-12-20T07:25:38;100110.00;;;5.56;99.92
32733;BME280;11867;51.198;11.966;2023-12-20T07:31:03;100121.34;;;5.53;100.00
32733;BME280;11867;51.198;11.966;2023-12-20T07:36:26;100134.09;;;5.79;99.94
32733;BME280;11867;51.198;11.966;2023-12-20T07:41:50;100116.88;;;5.91;99.71
32733;BME280;11867;51.198;11.966;2023-12-20T07:47:14;100116.13;;;5.95;100.00
32733;BME280;11867;51.198;11.966;2023-12-20T07:52:41;100113.63;;;5.89;100.00
32733;BME280;11867;51.198;11.966;2023-12-20T07:58:03;100123.28;;;5.57;100.00
32733;BME280;11867;51.198;11.966;2023-12-20T08:03:28;100122.53;;;5.62;100.00
32733;BME280;11867;51.198;11.966;2023-12-20T08:08:51;100120.81;;;5.56;100.00
32733;BME280;11867;51.198;11.966;2023-12-20T08:14:23;100122.28;;;5.63;100.00
32733;BME280;11867;51.198;11.966;2023-12-20T08:19:47;100133.88;;;5.86;99.77
32733;BME280;11867;51.198;11.966;2023-12-20T08:25:10;100143.84;;;6.02;98.48
32733;BME280;11867;51.198;11.966;2023-12-20T08:30:33;100154.19;;;5.89;96.38
32733;BME280;11867;51.198;11.966;2023-12-20T08:35:57;100150.16;;;5.91;96.34
32733;BME280;11867;51.198;11.966;2023-12-20T08:41:20;100135.69;;;6.30;95.09
32733;BME280;11867;51.198;11.966;2023-12-20T08:46:43;100138.16;;;6.04;94.35
32733;BME280;11867;51.198;11.966;2023-12-20T08:52:07;100143.22;;;6.22;94.38
32733;BME280;11867;51.198;11.966;2023-12-20T08:57:30;100133.97;;;6.51;93.06
32733;BME280;11867;51.198;11.966;2023-12-20T09:02:54;100136.91;;;6.44;92.29
32733;BME280;11867;51.198;11.966;2023-12-20T09:08:18;100131.94;;;6.31;93.64
32733;BME280;11867;51.198;11.966;2023-12-20T09:13:41;100124.94;;;6.40;93.20
32733;BME280;11867;51.198;11.966;2023-12-20T09:19:04;100117.22;;;6.21;92.62
32733;BME280;11867;51.198;11.966;2023-12-20T09:24:28;100116.72;;;6.24;92.29
32733;BME280;11867;51.198;11.966;2023-12-20T09:29:51;100128.09;;;6.26;92.10
32733;BME280;11867;51.198;11.966;2023-12-20T09:35:15;100115.56;;;6.53;91.70
32733;BME280;11867;51.198;11.966;2023-12-20T09:40:41;100117.22;;;6.54;91.48
32733;BME280;11867;51.198;11.966;2023-12-20T09:46:06;100117.00;;;6.65;90.80
32733;BME280;11867;51.198;11.966;2023-12-20T09:51:30;100112.03;;;6.52;91.04
32733;BME280;11867;51.198;11.966;2023-12-20T09:56:55;100095.41;;;6.76;89.80
32733;BME280;11867;51.198;11.966;2023-12-20T10:02:20;100079.84;;;7.03;89.83
32733;BME280;11867;51.198;11.966;2023-12-20T10:07:48;100079.41;;;7.22;86.69
32733;BME280;11867;51.198;11.966;2023-12-20T10:13:12;100079.63;;;8.29;82.23
32733;BME280;11867;51.198;11.966;2023-12-20T10:18:35;100065.31;;;9.20;77.88
32733;BME280;11867;51.198;11.966;2023-12-20T10:24:00;100060.59;;;8.14;79.19
32733;BME280;11867;51.198;11.966;2023-12-20T10:29:24;100056.72;;;7.48;83.40
32733;BME280;11867;51.198;11.966;2023-12-20T10:34:47;100043.06;;;7.18;83.29
32733;BME280;11867;51.198;11.966;2023-12-20T10:40:12;100066.63;;;7.12;83.05
32733;BME280;11867;51.198;11.966;2023-12-20T10:45:37;100020.81;;;7.21;83.32
32733;BME280;11867;51.198;11.966;2023-12-20T10:51:01;100026.00;;;7.27;83.70
32733;BME280;11867;51.198;11.966;2023-12-20T10:56:24;100035.97;;;7.12;83.58
32733;BME280;11867;51.198;11.966;2023-12-20T11:01:50;100022.69;;;7.05;83.94
32733;BME280;11867;51.198;11.966;2023-12-20T11:07:20;100014.22;;;6.91;84.42
32733;BME280;11867;51.198;11.966;2023-12-20T11:12:49;100023.16;;;6.92;84.29
32733;BME280;11867;51.198;11.966;2023-12-20T11:18:16;100021.28;;;6.97;83.32
32733;BME280;11867;51.198;11.966;2023-12-20T11:23:42;100002.13;;;7.24;82.60
32733;BME280;11867;51.198;11.966;2023-12-20T11:29:35;99997.59;;;7.56;81.54
32733;BME280;11867;51.198;11.966;2023-12-20T11:35:01;99975.84;;;7.30;81.51
32733;BME280;11867;51.198;11.966;2023-12-20T11:40:41;99973.41;;;8.46;79.01
32733;BME280;11867;51.198;11.966;2023-12-20T11:46:05;99964.28;;;10.69;71.43
32733;BME280;11867;51.198;11.966;2023-12-20T11:51:30;99945.75;;;11.28;68.55
32733;BME280;11867;51.198;11.966;2023-12-20T11:56:53;99944.53;;;8.71;76.47
32733;BME280;11867;51.198;11.966;2023-12-20T12:02:16;99926.38;;;9.16;74.65
32733;BME280;11867;51.198;11.966;2023-12-20T12:07:40;99918.81;;;8.38;76.72
32733;BME280;11867;51.198;11.966;2023-12-20T12:13:03;99892.31;;;9.24;74.76
32733;BME280;11867;51.198;11.966;2023-12-20T12:18:26;99912.13;;;9.29;74.82
32733;BME280;11867;51.198;11.966;2023-12-20T12:23:50;99891.50;;;10.16;71.54
32733;BME280;11867;51.198;11.966;2023-12-20T12:29:14;99866.56;;;11.33;67.89
32733;BME280;11867;51.198;11.966;2023-12-20T12:34:37;99859.00;;;11.44;66.45
32733;BME280;11867;51.198;11.966;2023-12-20T12:40:03;99853.44;;;11.35;67.00
32733;BME280;11867;51.198;11.966;2023-12-20T12:45:27;99881.16;;;11.75;65.55
32733;BME280;11867;51.198;11.966;2023-12-20T12:50:50;99845.47;;;11.20;66.66
32733;BME280;11867;51.198;11.966;2023-12-20T12:56:15;99879.16;;;10.24;69.33
32733;BME280;11867;51.198;11.966;2023-12-20T13:01:38;99851.16;;;10.18;70.55
32733;BME280;11867;51.198;11.966;2023-12-20T13:07:01;99856.50;;;9.46;72.17
32733;BME280;11867;51.198;11.966;2023-12-20T13:12:26;99857.41;;;8.37;76.51
32733;BME280;11867;51.198;11.966;2023-12-20T13:17:49;99844.97;;;8.20;78.27
32733;BME280;11867;51.198;11.966;2023-12-20T13:23:13;99844.03;;;7.75;79.68
32733;BME280;11867;51.198;11.966;2023-12-20T13:28:38;99848.13;;;7.47;82.01
32733;BME280;11867;51.198;11.966;2023-12-20T13:34:01;99841.31;;;7.39;81.76
32733;BME280;11867;51.198;11.966;2023-12-20T13:39:24;99840.00;;;7.21;82.83
32733;BME280;11867;51.198;11.966;2023-12-20T13:44:48;99806.91;;;7.09;83.84
32733;BME280;11867;51.198;11.966;2023-12-20T13:50:11;99828.31;;;7.11;83.99
32733;BME280;11867;51.198;11.966;2023-12-20T13:55:34;99837.78;;;7.08;83.37
32733;BME280;11867;51.198;11.966;2023-12-20T14:00:59;99857.59;;;7.03;84.13
32733;BME280;11867;51.198;11.966;2023-12-20T14:06:22;99846.19;;;6.91;84.93
32733;BME280;11867;51.198;11.966;2023-12-20T14:11:45;99833.16;;;6.88;85.49
32733;BME280;11867;51.198;11.966;2023-12-20T14:17:09;99850.25;;;6.89;85.64
32733;BME280;11867;51.198;11.966;2023-12-20T14:22:33;99841.56;;;6.86;86.27
32733;BME280;11867;51.198;11.966;2023-12-20T14:27:56;99851.06;;;6.99;85.29
32733;BME280;11867;51.198;11.966;2023-12-20T14:33:20;99833.16;;;6.88;85.63
32733;BME280;11867;51.198;11.966;2023-12-20T14:38:43;99855.34;;;6.80;86.21
32733;BME280;11867;51.198;11.966;2023-12-20T14:44:06;99858.63;;;6.82;86.11
32733;BME280;11867;51.198;11.966;2023-12-20T14:49:31;99880.00;;;6.73;86.76
32733;BME280;11867;51.198;11.966;2023-12-20T14:54:54;99857.25;;;6.74;86.71
32733;BME280;11867;51.198;11.966;2023-12-20T15:00:17;99841.00;;;6.74;87.01
32733;BME280;11867;51.198;11.966;2023-12-20T15:05:42;99856.94;;;6.65;87.78
32733;BME280;11867;51.198;11.966;2023-12-20T15:11:05;99859.34;;;6.57;87.72
32733;BME280;11867;51.198;11.966;2023-12-20T15:16:28;99855.56;;;6.47;88.76
32733;BME280;11867;51.198;11.966;2023-12-20T15:21:52;99858.25;;;6.47;89.06
32733;BME280;11867;51.198;11.966;2023-12-20T15:27:15;99851.22;;;6.52;89.29
32733;BME280;11867;51.198;11.966;2023-12-20T15:32:38;99840.94;;;6.59;88.96
32733;BME280;11867;51.198;11.966;2023-12-20T15:38:03;99864.81;;;6.67;88.62
32733;BME280;11867;51.198;11.966;2023-12-20T15:43:27;99858.59;;;6.66;88.22
32733;BME280;11867;51.198;11.966;2023-12-20T15:48:50;99876.47;;;6.73;88.29
32733;BME280;11867;51.198;11.966;2023-12-20T15:54:15;99858.88;;;6.70;88.35
32733;BME280;11867;51.198;11.966;2023-12-20T15:59:38;99879.47;;;6.76;88.05
32733;BME280;11867;51.198;11.966;2023-12-20T16:05:01;99867.03;;;6.80;87.79
32733;BME280;11867;51.198;11.966;2023-12-20T16:10:26;99881.34;;;6.76;88.04
32733;BME280;11867;51.198;11.966;2023-12-20T16:15:49;99884.59;;;6.67;88.84
32733;BME280;11867;51.198;11.966;2023-12-20T16:21:12;99865.06;;;6.65;89.24
32733;BME280;11867;51.198;11.966;2023-12-20T16:26:36;99876.19;;;6.64;89.82
32733;BME280;11867;51.198;11.966;2023-12-20T16:31:59;99879.16;;;6.67;89.73
32733;BME280;11867;51.198;11.966;2023-12-20T16:37:22;99898.72;;;6.75;89.46
32733;BME280;11867;51.198;11.966;2023-12-20T16:42:47;99879.72;;;6.64;90.20
32733;BME280;11867;51.198;11.966;2023-12-20T16:48:10;99863.75;;;6.68;89.93
32733;BME280;11867;51.198;11.966;2023-12-20T16:53:33;99875.66;;;6.62;90.39
32733;BME280;11867;51.198;11.966;2023-12-20T16:58:57;99868.06;;;6.64;90.16
32733;BME280;11867;51.198;11.966;2023-12-20T17:04:20;99859.13;;;6.69;89.47
32733;BME280;11867;51.198;11.966;2023-12-20T17:09:45;99863.19;;;6.71;89.62
32733;BME280;11867;51.198;11.966;2023-12-20T17:15:10;99855.66;;;6.78;89.16
32733;BME280;11867;51.198;11.966;2023-12-20T17:20:33;99851.00;;;6.69;88.85
32733;BME280;11867;51.198;11.966;2023-12-20T17:25:56;99865.91;;;6.71;89.12
32733;BME280;11867;51.198;11.966;2023-12-20T17:31:20;99871.06;;;6.73;88.79
32733;BME280;11867;51.198;11.966;2023-12-20T17:36:43;99864.53;;;6.63;89.22
32733;BME280;11867;51.198;11.966;2023-12-20T17:42:08;99862.94;;;6.78;88.52
32733;BME280;11867;51.198;11.966;2023-12-20T17:47:36;99870.53;;;6.71;88.53
32733;BME280;11867;51.198;11.966;2023-12-20T17:52:59;99863.25;;;6.86;87.46
32733;BME280;11867;51.198;11.966;2023-12-20T17:58:22;99858.03;;;6.70;88.19
32733;BME280;11867;51.198;11.966;2023-12-20T18:03:47;99849.41;;;6.73;88.12
32733;BME280;11867;51.198;11.966;2023-12-20T18:09:10;99865.94;;;6.76;87.71
32733;BME280;11867;51.198;11.966;2023-12-20T18:14:33;99869.44;;;6.82;87.34
32733;BME280;11867;51.198;11.966;2023-12-20T18:19:57;99856.75;;;6.93;87.65
32733;BME280;11867;51.198;11.966;2023-12-20T18:25:21;99863.25;;;6.92;88.31
32733;BME280;11867;51.198;11.966;2023-12-20T18:30:44;99849.97;;;6.85;89.67
32733;BME280;11867;51.198;11.966;2023-12-20T18:36:09;99846.19;;;6.91;89.97
32733;BME280;11867;51.198;11.966;2023-12-20T18:41:32;99833.16;;;6.88;90.41
32733;BME280;11867;51.198;11.966;2023-12-20T18:46:56;99832.34;;;6.82;91.42
32733;BME280;11867;51.198;11.966;2023-12-20T18:52:20;99834.78;;;6.79;92.00
32733;BME280;11867;51.198;11.966;2023-12-20T18:57:45;99815.25;;;6.77;92.11
32733;BME280;11867;51.198;11.966;2023-12-20T19:03:09;99803.91;;;6.95;91.11
32733;BME280;11867;51.198;11.966;2023-12-20T19:08:34;99808.53;;;6.95;90.90
32733;BME280;11867;51.198;11.966;2023-12-20T19:13:58;99805.00;;;6.99;91.50
32733;BME280;11867;51.198;11.966;2023-12-20T19:19:21;99810.94;;;6.86;91.34
32733;BME280;11867;51.198;11.966;2023-12-20T19:24:46;99795.75;;;6.75;92.78
32733;BME280;11867;51.198;11.966;2023-12-20T19:30:10;99788.72;;;6.84;93.40
32733;BME280;11867;51.198;11.966;2023-12-20T19:35:35;99790.31;;;6.64;94.10
32733;BME280;11867;51.198;11.966;2023-12-20T19:40:59;99796.28;;;6.82;92.97
32733;BME280;11867;51.198;11.966;2023-12-20T19:46:22;99781.09;;;6.76;92.60
32733;BME280;11867;51.198;11.966;2023-12-20T19:51:45;99778.13;;;6.77;92.74
32733;BME280;11867;51.198;11.966;2023-12-20T19:57:09;99760.00;;;6.83;92.12
32733;BME280;11867;51.198;11.966;2023-12-20T20:02:35;99766.50;;;6.87;91.92
32733;BME280;11867;51.198;11.966;2023-12-20T20:07:59;99766.47;;;6.66;92.26
32733;BME280;11867;51.198;11.966;2023-12-20T20:13:23;99745.88;;;6.76;91.75
32733;BME280;11867;51.198;11.966;2023-12-20T20:18:47;99729.38;;;6.77;91.41
32733;BME280;11867;51.198;11.966;2023-12-20T20:24:10;99734.53;;;6.79;91.34
32733;BME280;11867;51.198;11.966;2023-12-20T20:29:34;99742.09;;;6.82;91.06
32733;BME280;11867;51.198;11.966;2023-12-20T20:34:57;99744.00;;;6.92;90.56
32733;BME280;11867;51.198;11.966;2023-12-20T20:40:20;99747.53;;;6.92;90.54
32733;BME280;11867;51.198;11.966;2023-12-20T20:45:44;99736.16;;;6.95;90.49
32733;BME280;11867;51.198;11.966;2023-12-20T20:51:11;99724.75;;;6.98;90.03
32733;BME280;11867;51.198;11.966;2023-12-20T20:56:34;99716.38;;;6.90;90.49
32733;BME280;11867;51.198;11.966;2023-12-20T21:01:58;99708.78;;;7.02;90.01
32733;BME280;11867;51.198;11.966;2023-12-20T21:07:21;99700.66;;;6.97;90.36
32733;BME280;11867;51.198;11.966;2023-12-20T21:12:44;99698.22;;;6.95;90.57
32733;BME280;11867;51.198;11.966;2023-12-20T21:18:08;99673.00;;;7.00;90.43
32733;BME280;11867;51.198;11.966;2023-12-20T21:23:32;99662.97;;;7.00;90.57
32733;BME280;11867;51.198;11.966;2023-12-20T21:28:55;99639.13;;;6.92;91.36
32733;BME280;11867;51.198;11.966;2023-12-20T21:34:19;99617.19;;;6.94;90.77
32733;BME280;11867;51.198;11.966;2023-12-20T21:39:43;99610.41;;;7.01;90.66
32733;BME280;11867;51.198;11.966;2023-12-20T21:45:07;99591.13;;;7.08;90.76
32733;BME280;11867;51.198;11.966;2023-12-20T21:50:32;99595.19;;;7.00;91.19
32733;BME280;11867;51.198;11.966;2023-12-20T21:55:58;99584.69;;;6.89;91.46
32733;BME280;11867;51.198;11.966;2023-12-20T22:01:21;99580.81;;;7.10;90.29
32733;BME280;11867;51.198;11.966;2023-12-20T22:06:45;99583.28;;;6.96;91.35
32733;BME280;11867;51.198;11.966;2023-12-20T22:12:08;99539.13;;;7.01;91.41
32733;BME280;11867;51.198;11.966;2023-12-20T22:17:31;99537.81;;;6.83;92.02
32733;BME280;11867;51.198;11.966;2023-12-20T22:22:55;99513.88;;;7.05;91.24
32733;BME280;11867;51.198;11.966;2023-12-20T22:28:18;99516.41;;;6.81;92.65
32733;BME280;11867;51.198;11.966;2023-12-20T22:33:41;99481.47;;;6.70;94.58
32733;BME280;11867;51.198;11.966;2023-12-20T22:39:05;99464.88;;;6.92;92.61
32733;BME280;11867;51.198;11.966;2023-12-20T22:44:28;99459.19;;;6.88;93.28
32733;BME280;11867;51.198;11.966;2023-12-20T22:49:51;99455.22;;;6.70;93.76
32733;BME280;11867;51.198;11.966;2023-12-20T22:55:16;99452.78;;;6.63;94.22
32733;BME280;11867;51.198;11.966;2023-12-20T23:00:40;99451.88;;;6.94;92.80
32733;BME280;11867;51.198;11.966;2023-12-20T23:06:04;99448.88;;;6.95;91.52
32733;BME280;11867;51.198;11.966;2023-12-20T23:11:28;99436.34;;;7.04;91.84
32733;BME280;11867;51.198;11.966;2023-12-20T23:16:51;99436.97;;;6.91;92.00
32733;BME280;11867;51.198;11.966;2023-12-20T23:22:14;99431.81;;;6.95;92.31
32733;BME280;11867;51.198;11.966;2023-12-20T23:27:38;99412.88;;;6.90;91.58
32733;BME280;11867;51.198;11.966;2023-12-20T23:33:05;99408.19;;;7.00;91.72
32733;BME280;11867;51.198;11.966;2023-12-20T23:38:28;99391.13;;;7.00;91.22
32733;BME280;11867;51.198;11.966;2023-12-20T23:43:52;99387.84;;;7.08;92.20
32733;BME280;11867;51.198;11.966;2023-12-20T23:49:15;99367.19;;;7.17;91.94
32733;BME280;11867;51.198;11.966;2023-12-20T23:54:38;99378.16;;;6.97;93.01
